Aviation Digital Data Service (ADDS)

Output produced by METARs form (0017 UTC 21 January 2019)
found at http://www.aviationweather.gov/metar/data/
 
Forecast for: MDSD (CAUCEDO/DE LAS , DO)
Text: TAF MDSD 202200Z 2100/2200 04007KT 9999 SCT017
Forecast period: 0000 UTC 21 January 2019 to 0000 UTC 22 January 2019
Forecast type: FROM: standard forecast or significant change
Winds: from the NE (40 degrees) at 8 MPH (7 knots; 3.6 m/s)
Visibility: 6 or more miles 10+ km)
Ceiling: at least 12,000 feet AGL
Clouds: scattered clouds at 1700 feet AGL
Weather: no significant weather forecast for this period